Weather reports worldwide

Advertisment
Isola Stromboli, Italy (16416): temperature & dewpoint: 12.12.2017 00:00:00 - 18.12.2017 00:00:00 (CET)Isola Stromboli, Italy (16416): wind speed: 12.12.2017 00:00:00 - 18.12.2017 00:00:00 (CET)Isola Stromboli, Italy (16416): wind direction: 12.12.2017 00:00:00 - 18.12.2017 00:00:00 (CET)Isola Stromboli, Italy (16416): reduced air pressure: 12.12.2017 00:00:00 - 18.12.2017 00:00:00 (CET)Isola Stromboli, Italy (16416): precipitation: 12.12.2017 00:00:00 - 18.12.2017 00:00:00 (CET)
Date & Time tt [°C] td [°C] ff [km/h] ff [kn] dd ppp [hPa] rr [mm]
18.12.2017 00:00:00 - - - - - - -
17.12.2017 23:00:00 10,4 4,7 13 7 SW 1017,4 -
17.12.2017 22:00:00 9,0 4,4 11 6 WNW 1016,7 -
17.12.2017 21:00:00 9,5 4,8 11 6 WNW 1016,7 -
17.12.2017 20:00:00 10,2 5,3 28 15 SSW 1016,2 -
17.12.2017 19:00:00 9,1 3,6 9 5 NW 1016,0 0,0
17.12.2017 18:00:00 9,5 6,0 18 10 SW 1015,4 -
17.12.2017 17:00:00 9,2 4,9 22 12 SSW 1014,9 -
17.12.2017 16:00:00 10,2 5,1 35 19 W 1014,4 -
17.12.2017 15:00:00 9,0 4,4 15 8 SSW 1014,0 -
17.12.2017 14:00:00 12,0 4,6 34 18 W 1013,6 -
17.12.2017 13:00:00 11,8 4,4 35 19 WSW 1013,5 0,0
17.12.2017 12:00:00 11,7 5,3 31 17 SW 1013,5 -
17.12.2017 11:00:00 11,4 2,8 31 17 WSW 1013,9 -
17.12.2017 10:00:00 11,9 4,3 35 19 SW 1013,3 -
17.12.2017 09:00:00 11,0 5,5 29 16 SW 1012,8 -
17.12.2017 08:00:00 10,3 5,2 28 15 SW 1012,0 -
17.12.2017 07:00:00 10,7 4,1 15 8 W 1012,0 0,0
17.12.2017 06:00:00 10,8 6,1 24 13 SW 1011,9 -
17.12.2017 05:00:00 8,8 5,5 13 7 WSW 1011,7 -
17.12.2017 04:00:00 9,8 4,9 24 13 WSW 1011,2 -
17.12.2017 03:00:00 10,5 6,6 11 6 SSW 1011,2 -
17.12.2017 02:00:00 10,6 6,1 22 12 SSW 1010,9 -
17.12.2017 01:00:00 9,1 6,7 11 6 W 1011,1 0,0
17.12.2017 00:00:00 10,9 7,4 29 16 W 1011,2 -
16.12.2017 23:00:00 11,5 7,6 8 4 WSW 1011,0 -
16.12.2017 22:00:00 11,2 7,7 8 4 SSW 1010,8 -
16.12.2017 21:00:00 10,4 7,4 11 6 NW 1010,8 -
16.12.2017 20:00:00 10,2 7,9 13 7 NW 1010,8 -
16.12.2017 19:00:00 10,8 8,0 16 9 SSW 1010,4 0,0
16.12.2017 18:00:00 11,1 7,6 26 14 W 1009,6 -
16.12.2017 17:00:00 13,7 6,5 28 15 W 1008,6 -
16.12.2017 16:00:00 13,7 5,8 21 11 SW 1008,2 -
16.12.2017 15:00:00 14,0 8,3 22 12 NW 1008,0 -
16.12.2017 14:00:00 14,3 8,4 18 10 WNW 1007,9 -
16.12.2017 13:00:00 14,5 9,0 11 6 WNW 1007,7 0,0
16.12.2017 12:00:00 14,9 9,4 9 5 W 1008,2 -
16.12.2017 11:00:00 14,8 10,0 11 6 WNW 1008,6 -
16.12.2017 10:00:00 14,5 9,7 11 6 W 1008,5 -
16.12.2017 09:00:00 14,4 10,6 13 7 SSW 1007,9 -
16.12.2017 08:00:00 14,5 10,3 15 8 SSW 1007,6 -
16.12.2017 07:00:00 14,7 9,7 18 10 S 1007,6 0,0
16.12.2017 06:00:00 15,3 12,0 21 11 SSW 1007,5 -
16.12.2017 05:00:00 16,1 10,8 9 5 WSW 1006,8 -
16.12.2017 04:00:00 16,8 9,9 13 7 SW 1006,9 -
16.12.2017 03:00:00 16,8 9,2 13 7 SW 1006,9 -
16.12.2017 02:00:00 16,9 6,9 21 11 WSW 1007,1 -
16.12.2017 01:00:00 16,6 7,5 22 12 W 1007,1 0,0
16.12.2017 00:00:00 17,1 5,3 13 7 SW 1007,8 -
15.12.2017 23:00:00 16,3 7,2 15 8 SSW 1008,6 -
15.12.2017 22:00:00 16,5 5,7 5 3 S 1008,7 -
15.12.2017 21:00:00 15,6 4,2 8 4 S 1007,8 -
15.12.2017 20:00:00 16,2 2,8 9 5 S 1007,8 -
15.12.2017 19:00:00 15,7 2,4 11 6 S 1007,5 0,0
15.12.2017 18:00:00 14,7 7,4 13 7 S 1007,7 -
15.12.2017 17:00:00 13,9 6,9 11 6 S 1008,0 -
15.12.2017 16:00:00 14,7 6,4 11 6 S 1008,6 -
15.12.2017 15:00:00 16,4 6,4 9 5 WNW 1008,9 -
15.12.2017 14:00:00 17,2 7,2 11 6 W 1009,7 -
15.12.2017 13:00:00 16,8 8,2 13 7 WSW 1010,4 0,0
15.12.2017 12:00:00 16,8 8,7 15 8 S 1011,6 -
15.12.2017 11:00:00 16,1 9,0 15 8 WSW 1012,7 -
15.12.2017 10:00:00 15,6 9,4 18 10 SW 1013,3 -
15.12.2017 09:00:00 14,9 9,2 16 9 W 1013,5 -
15.12.2017 08:00:00 13,5 7,9 9 5 S 1013,7 -
15.12.2017 07:00:00 13,0 6,3 9 5 S 1014,0 0,0
15.12.2017 06:00:00 13,8 6,6 11 6 WSW 1014,3 -
15.12.2017 05:00:00 13,1 6,8 4 2 NW 1014,7 -
15.12.2017 04:00:00 13,2 7,8 9 5 SSW 1015,3 -
15.12.2017 03:00:00 13,7 8,9 4 2 SSW 1016,1 -
15.12.2017 02:00:00 13,9 9,1 4 2 WSW 1016,5 -
15.12.2017 01:00:00 14,3 9,5 4 2 S 1016,8 0,0
15.12.2017 00:00:00 14,4 9,2 4 2 SSW 1017,2 -
14.12.2017 23:00:00 14,6 9,6 5 3 S 1017,0 -
14.12.2017 22:00:00 14,3 9,7 8 4 W 1017,0 -
14.12.2017 21:00:00 14,4 9,4 9 5 W 1017,4 -
14.12.2017 20:00:00 14,1 9,3 9 5 WSW 1017,9 -
14.12.2017 19:00:00 14,5 9,3 9 5 WSW 1018,2 0,0
14.12.2017 18:00:00 14,1 9,1 8 4 WSW 1018,0 -
14.12.2017 17:00:00 14,1 9,5 8 4 W 1018,4 -
14.12.2017 16:00:00 14,0 9,2 8 4 W 1018,7 -
14.12.2017 15:00:00 13,7 8,7 8 4 SW 1019,2 -
14.12.2017 14:00:00 13,9 8,7 9 5 W 1019,5 -
14.12.2017 13:00:00 14,1 7,8 11 6 WNW 1019,9 0,0
14.12.2017 12:00:00 14,0 7,2 9 5 W 1020,6 -
14.12.2017 11:00:00 14,0 6,8 18 10 WSW 1020,8 -
14.12.2017 10:00:00 14,0 6,5 11 6 WSW 1021,4 -
14.12.2017 09:00:00 13,7 6,7 11 6 W 1021,4 -
14.12.2017 08:00:00 13,0 6,5 11 6 SSW 1020,9 -
14.12.2017 07:00:00 12,6 6,4 8 4 WNW 1020,9 0,0
14.12.2017 06:00:00 12,9 7,1 5 3 SSW 1020,6 -
14.12.2017 05:00:00 12,5 8,5 9 5 WSW 1020,6 -
14.12.2017 04:00:00 12,4 9,6 13 7 SSW 1020,7 -
14.12.2017 03:00:00 11,7 9,4 11 6 WNW 1020,9 -
14.12.2017 02:00:00 11,9 10,3 9 5 WSW 1020,8 -
14.12.2017 01:00:00 12,8 10,0 18 10 WNW 1020,8 0,0
14.12.2017 00:00:00 13,4 10,4 16 9 SW 1020,9 -
13.12.2017 23:00:00 13,4 10,9 15 8 S 1021,5 -
13.12.2017 22:00:00 13,1 11,5 15 8 SSW 1021,3 -
13.12.2017 21:00:00 13,1 11,6 18 10 SSW 1021,4 -
13.12.2017 20:00:00 13,1 11,8 13 7 WSW 1021,2 -
13.12.2017 19:00:00 13,5 11,0 31 17 WSW 1021,3 0,0
13.12.2017 18:00:00 15,1 11,5 15 8 W 1020,3 -
13.12.2017 17:00:00 15,2 11,9 13 7 WNW 1020,2 -
13.12.2017 16:00:00 15,7 13,1 22 12 SW 1020,0 -
13.12.2017 15:00:00 16,2 13,4 9 5 W 1020,0 -
13.12.2017 14:00:00 16,5 12,6 15 8 W 1020,2 -
13.12.2017 13:00:00 16,9 12,0 15 8 SW 1020,8 0,0
13.12.2017 12:00:00 17,3 12,8 8 4 S 1021,1 -
13.12.2017 11:00:00 17,1 12,4 0 0 N 1021,5 -
13.12.2017 10:00:00 17,4 12,8 2 1 NNW 1021,6 -
13.12.2017 09:00:00 18,2 13,4 2 1 SSW 1020,9 -
13.12.2017 08:00:00 15,3 9,4 0 0 N 1020,6 -
13.12.2017 07:00:00 15,4 8,1 4 2 NNW 1020,5 0,0
13.12.2017 06:00:00 15,6 8,5 8 4 NNW 1020,1 -
13.12.2017 05:00:00 15,6 7,8 8 4 NNW 1019,6 -
13.12.2017 04:00:00 15,6 8,5 8 4 NNW 1019,8 -
13.12.2017 03:00:00 16,3 6,6 5 3 NNW 1019,6 -
13.12.2017 02:00:00 15,8 6,2 4 2 S 1019,4 -
13.12.2017 01:00:00 16,5 6,5 8 4 S 1019,0 0,0
13.12.2017 00:00:00 15,5 8,4 13 7 SSW 1019,4 -
12.12.2017 23:00:00 15,5 9,3 15 8 S 1019,6 -
12.12.2017 22:00:00 15,8 8,0 11 6 S 1019,4 -
12.12.2017 21:00:00 15,7 10,4 15 8 S 1019,3 -
12.12.2017 20:00:00 15,9 11,6 11 6 S 1019,1 -
12.12.2017 19:00:00 16,1 13,3 18 10 S 1018,8 0,0
12.12.2017 18:00:00 16,2 13,4 15 8 SSW 1018,3 -
12.12.2017 17:00:00 16,2 12,5 15 8 S 1017,9 -
12.12.2017 16:00:00 16,5 11,0 11 6 S 1017,7 -
12.12.2017 15:00:00 17,2 8,3 9 5 WSW 1017,7 -
12.12.2017 14:00:00 18,6 11,8 0 0 N 1017,5 -
12.12.2017 13:00:00 18,6 11,1 11 6 SSW 1017,3 0,0
12.12.2017 12:00:00 18,6 12,8 15 8 SSW 1017,5 -
12.12.2017 11:00:00 18,2 12,4 21 11 SSW 1017,6 -
12.12.2017 10:00:00 17,6 12,2 18 10 SSW 1017,5 -
12.12.2017 09:00:00 17,6 12,8 8 4 S 1017,2 -
12.12.2017 08:00:00 15,4 10,5 8 4 S 1016,9 -
12.12.2017 07:00:00 14,9 9,9 13 7 S 1016,4 0,0
12.12.2017 06:00:00 15,5 7,7 11 6 SSW 1015,6 -
12.12.2017 05:00:00 15,6 9,0 15 8 S 1015,1 -
12.12.2017 04:00:00 15,9 9,5 21 11 SSW 1014,7 -
12.12.2017 03:00:00 15,7 9,5 13 7 SSW 1014,5 -
12.12.2017 02:00:00 15,7 10,0 16 9 S 1014,1 -
12.12.2017 01:00:00 15,9 10,2 16 9 S 1013,7 0,0
12.12.2017 00:00:00 15,9 10,6 22 12 SSW 1013,6 -

tt = temperature
td = dewpoint
ff = wind speed
dd = wind direction
ppp = reduced air pressure
rr = precipitation

Next stations